Time;durP1;ratioP1;P1;durP2;ratioP2;P2;SDS_P1;SDS_P2;PMS_P1;PMS_P2;Temp;Humidity;BMP_temperature;BMP_pressure;BME280_temperature;BME280_humidity;BME280_pressure;Samples;Min_cycle;Max_cycle;Signal;HPM_P1;HPM_P2
2024/02/20 00:01:46;;;;;;;5.57;3.30;;;8.40;99.90;;;;;;4987761;28;20292;-79
2024/02/20 00:04:17;;;;;;;5.77;3.73;;;8.40;99.90;;;;;;4984971;28;20292;-80
2024/02/20 00:06:44;;;;;;;9.07;4.40;;;8.30;99.90;;;;;;4994164;28;20259;-80
2024/02/20 00:09:11;;;;;;;8.00;4.40;;;8.40;99.90;;;;;;4990777;28;20241;-79
2024/02/20 00:11:39;;;;;;;10.83;5.23;;;8.20;99.90;;;;;;4987568;28;20205;-78
2024/02/20 00:14:09;;;;;;;8.47;4.83;;;8.20;99.90;;;;;;4994230;28;20204;-79
2024/02/20 00:16:35;;;;;;;9.47;4.73;;;8.20;99.90;;;;;;4999501;28;20204;-79
2024/02/20 00:19:03;;;;;;;8.07;4.20;;;8.20;99.90;;;;;;4998671;28;20272;-78
2024/02/20 00:21:30;;;;;;;10.60;4.27;;;8.20;99.90;;;;;;4990407;28;20232;-80
2024/02/20 00:23:57;;;;;;;9.33;4.60;;;8.20;99.90;;;;;;4981948;28;20293;-79
2024/02/20 00:26:24;;;;;;;10.13;4.33;;;8.20;99.90;;;;;;4981025;28;20225;-79
2024/02/20 00:28:52;;;;;;;8.33;4.40;;;8.20;99.90;;;;;;4979961;28;20276;-79
2024/02/20 00:31:19;;;;;;;8.87;4.00;;;8.20;99.90;;;;;;4985872;28;20212;-78
2024/02/20 00:33:46;;;;;;;7.63;4.03;;;8.20;99.90;;;;;;4984496;28;20296;-78
2024/02/20 00:36:13;;;;;;;7.23;3.80;;;8.20;99.90;;;;;;4996003;28;20197;-79
2024/02/20 00:38:40;;;;;;;7.00;3.73;;;8.20;99.90;;;;;;4994442;28;20755;-80
2024/02/20 00:41:07;;;;;;;6.97;4.13;;;8.30;99.90;;;;;;4985472;28;20320;-79
2024/02/20 00:43:34;;;;;;;6.47;3.60;;;8.30;99.90;;;;;;4983771;28;20224;-78
2024/02/20 00:46:03;;;;;;;9.43;3.83;;;8.30;99.90;;;;;;4983452;28;20229;-79
2024/02/20 00:48:30;;;;;;;8.53;4.30;;;8.30;99.90;;;;;;4990618;28;20255;-80
2024/02/20 00:50:57;;;;;;;5.67;3.50;;;8.30;99.90;;;;;;4988849;28;20260;-79
2024/02/20 00:53:23;;;;;;;10.67;4.50;;;8.30;99.90;;;;;;4988065;28;20207;-79
2024/02/20 00:55:51;;;;;;;7.50;3.83;;;8.30;99.90;;;;;;4987497;28;20894;-80
2024/02/20 00:58:18;;;;;;;9.17;3.83;;;8.40;99.90;;;;;;4992601;28;20227;-79
2024/02/20 01:00:45;;;;;;;8.50;4.03;;;8.30;99.90;;;;;;4987312;28;20271;-79
2024/02/20 01:03:13;;;;;;;9.07;4.03;;;8.30;99.90;;;;;;4991141;28;20206;-79
2024/02/20 01:05:40;;;;;;;9.53;4.17;;;8.30;99.90;;;;;;4986482;28;20256;-79
2024/02/20 01:08:08;;;;;;;7.77;4.00;;;8.30;99.90;;;;;;4990084;28;20295;-80
2024/02/20 01:10:35;;;;;;;9.17;4.10;;;8.30;99.90;;;;;;4989988;28;20209;-80
2024/02/20 01:13:02;;;;;;;9.73;4.17;;;8.30;99.90;;;;;;4996237;28;20219;-80
2024/02/20 01:15:28;;;;;;;7.60;3.80;;;8.20;99.90;;;;;;4986686;28;20295;-79
2024/02/20 01:17:55;;;;;;;9.20;4.30;;;8.20;99.90;;;;;;4994533;28;20641;-78
2024/02/20 01:20:23;;;;;;;14.03;4.63;;;8.20;99.90;;;;;;4989612;28;20292;-79
2024/02/20 01:22:50;;;;;;;9.63;3.53;;;8.10;99.90;;;;;;4991077;28;20201;-80
2024/02/20 01:25:18;;;;;;;9.60;4.53;;;8.10;99.90;;;;;;4979634;28;20214;-79
2024/02/20 01:27:44;;;;;;;9.57;3.63;;;8.10;99.90;;;;;;4978089;28;20213;-80
2024/02/20 01:30:12;;;;;;;8.50;3.43;;;8.10;99.90;;;;;;4977997;28;20308;-79
2024/02/20 01:32:39;;;;;;;8.70;3.77;;;8.10;99.90;;;;;;4980662;28;20232;-80
2024/02/20 01:35:07;;;;;;;8.30;3.67;;;8.10;99.90;;;;;;4982367;28;20233;-80
2024/02/20 01:37:35;;;;;;;8.30;2.90;;;8.00;99.90;;;;;;4980591;28;20252;-78
2024/02/20 01:40:03;;;;;;;6.60;2.63;;;8.00;99.90;;;;;;4990739;28;20255;-80
2024/02/20 01:42:30;;;;;;;11.27;3.47;;;8.00;99.90;;;;;;4993284;28;20267;-79
2024/02/20 01:44:57;;;;;;;5.70;2.63;;;8.00;99.90;;;;;;4995978;28;20300;-78
2024/02/20 01:47:24;;;;;;;7.57;3.30;;;7.90;99.90;;;;;;4989693;28;20225;-78
2024/02/20 01:49:51;;;;;;;9.33;2.97;;;7.90;99.90;;;;;;4988311;28;20241;-80
2024/02/20 01:52:19;;;;;;;9.07;3.37;;;7.80;99.90;;;;;;4990431;28;20623;-79
2024/02/20 01:54:49;;;;;;;7.83;3.17;;;7.80;99.90;;;;;;4988888;28;20220;-80
2024/02/20 01:57:17;;;;;;;9.67;3.67;;;7.80;99.90;;;;;;4992834;28;20202;-80
2024/02/20 01:59:45;;;;;;;7.73;3.17;;;7.80;99.90;;;;;;4993600;28;20220;-80
2024/02/20 02:02:13;;;;;;;8.53;3.30;;;7.80;99.90;;;;;;4990514;28;20289;-80
2024/02/20 02:04:39;;;;;;;9.27;3.33;;;7.80;99.90;;;;;;4990999;28;20683;-79
2024/02/20 02:07:06;;;;;;;11.57;3.60;;;7.80;99.90;;;;;;4993703;28;20288;-79
2024/02/20 02:09:33;;;;;;;11.43;3.00;;;7.90;99.90;;;;;;5000052;28;20220;-79
2024/02/20 02:12:02;;;;;;;10.10;3.33;;;7.90;99.90;;;;;;4993630;28;20205;-79
2024/02/20 02:14:28;;;;;;;7.07;3.20;;;7.80;99.90;;;;;;4992020;28;20205;-81
2024/02/20 02:16:55;;;;;;;9.30;3.33;;;7.80;99.90;;;;;;4994261;28;20293;-81
2024/02/20 02:19:22;;;;;;;8.67;3.03;;;7.80;99.90;;;;;;4994942;28;20304;-79
2024/02/20 02:21:49;;;;;;;11.93;3.07;;;7.80;99.90;;;;;;4988423;28;20244;-79
2024/02/20 02:24:16;;;;;;;12.10;3.00;;;7.80;99.90;;;;;;4988548;28;20201;-81
2024/02/20 02:26:44;;;;;;;9.23;2.90;;;7.80;99.90;;;;;;4982343;28;20205;-81
2024/02/20 02:29:11;;;;;;;11.67;2.90;;;7.80;99.90;;;;;;4981286;28;20245;-81
2024/02/20 02:31:38;;;;;;;10.97;2.80;;;7.80;99.90;;;;;;4982544;28;20668;-79
2024/02/20 02:34:06;;;;;;;10.13;3.03;;;7.90;99.90;;;;;;4982483;28;20253;-79
2024/02/20 02:36:33;;;;;;;14.97;3.47;;;8.00;99.90;;;;;;4985355;28;20714;-79
2024/02/20 02:39:00;;;;;;;9.67;2.83;;;7.90;99.90;;;;;;4985026;28;20225;-80
2024/02/20 02:41:28;;;;;;;11.33;2.87;;;7.90;99.90;;;;;;4990517;28;20252;-80
2024/02/20 02:43:56;;;;;;;10.57;2.50;;;8.00;99.90;;;;;;4989461;28;20216;-81
2024/02/20 02:46:23;;;;;;;9.80;2.77;;;7.90;99.90;;;;;;4989471;28;20268;-77
2024/02/20 02:48:50;;;;;;;17.50;3.40;;;8.00;99.90;;;;;;4998192;28;20405;-79
2024/02/20 02:51:17;;;;;;;16.87;3.07;;;8.00;99.90;;;;;;4999815;28;20209;-80
2024/02/20 02:53:44;;;;;;;8.83;2.50;;;8.00;99.90;;;;;;4989798;28;20232;-80
2024/02/20 02:56:13;;;;;;;14.67;2.83;;;7.90;99.90;;;;;;4994433;28;20241;-79
2024/02/20 02:58:41;;;;;;;8.80;3.33;;;7.90;99.90;;;;;;4994252;28;20225;-79
2024/02/20 03:01:10;;;;;;;10.77;2.87;;;7.90;99.90;;;;;;4990488;28;20265;-78
2024/02/20 03:03:37;;;;;;;12.27;3.30;;;7.90;99.90;;;;;;4993639;28;20296;-79
2024/02/20 03:06:08;;;;;;;10.67;3.40;;;7.90;99.90;;;;;;4992990;28;20201;-80
2024/02/20 03:08:36;;;;;;;15.73;3.43;;;7.80;99.90;;;;;;4994979;28;20241;-80
2024/02/20 03:11:05;;;;;;;13.50;3.53;;;7.90;99.90;;;;;;4993206;28;20228;-81
2024/02/20 03:13:33;;;;;;;9.43;2.63;;;7.80;99.90;;;;;;4995777;28;20209;-80
2024/02/20 03:16:00;;;;;;;13.00;3.43;;;7.80;99.90;;;;;;4995404;28;20288;-79
2024/02/20 03:18:28;;;;;;;17.37;3.07;;;7.80;99.90;;;;;;4991124;28;20267;-81
2024/02/20 03:20:55;;;;;;;15.87;3.27;;;7.80;99.90;;;;;;4987637;28;20228;-79
2024/02/20 03:23:22;;;;;;;12.10;3.10;;;7.80;99.90;;;;;;4991217;28;20236;-81
2024/02/20 03:25:49;;;;;;;11.10;2.77;;;7.80;99.90;;;;;;4981920;28;20217;-80
2024/02/20 03:28:16;;;;;;;13.67;3.43;;;7.80;99.90;;;;;;4988855;28;20216;-80
2024/02/20 03:30:43;;;;;;;14.53;3.23;;;7.90;99.90;;;;;;4984989;28;20289;-80
2024/02/20 03:33:10;;;;;;;21.53;4.00;;;7.80;99.90;;;;;;4983919;28;20287;-79
2024/02/20 03:35:38;;;;;;;16.07;3.20;;;7.80;99.90;;;;;;4995549;28;20230;-79
2024/02/20 03:38:05;;;;;;;13.33;3.20;;;7.90;99.90;;;;;;4982703;28;20270;-80
2024/02/20 03:40:32;;;;;;;16.23;4.20;;;7.90;99.90;;;;;;4984198;28;20217;-80
2024/02/20 03:42:59;;;;;;;20.60;4.40;;;7.80;99.90;;;;;;4984681;28;20212;-80
2024/02/20 03:45:26;;;;;;;18.60;4.53;;;7.80;99.90;;;;;;4988621;28;20264;-80
2024/02/20 03:47:53;;;;;;;13.60;3.60;;;7.80;99.90;;;;;;4989205;28;20713;-80
2024/02/20 03:50:19;;;;;;;22.10;3.77;;;7.80;99.90;;;;;;4983118;28;20198;-80
2024/02/20 03:52:48;;;;;;;16.43;3.80;;;7.80;99.90;;;;;;4990062;28;20296;-80
2024/02/20 03:55:15;;;;;;;19.07;3.83;;;7.80;99.90;;;;;;4998242;28;20209;-79
2024/02/20 03:57:42;;;;;;;18.17;3.90;;;7.80;95.80;;;;;;4996663;28;20296;-79
2024/02/20 04:00:11;;;;;;;18.13;4.50;;;7.90;1.00;;;;;;4990582;28;20253;-79
2024/02/20 04:02:40;;;;;;;21.40;4.77;;;7.90;1.00;;;;;;4993527;28;20205;-78
2024/02/20 04:05:11;;;;;;;17.43;3.63;;;7.80;1.00;;;;;;4992970;28;20259;-79
2024/02/20 04:07:38;;;;;;;23.37;4.67;;;7.80;1.00;;;;;;4993554;28;20201;-80
2024/02/20 04:10:08;;;;;;;17.87;3.37;;;7.80;1.00;;;;;;4991526;28;20827;-80
2024/02/20 04:12:35;;;;;;;16.83;3.63;;;7.80;1.00;;;;;;4993007;28;20268;-78
2024/02/20 04:15:04;;;;;;;20.17;3.37;;;7.80;1.00;;;;;;4992212;28;20553;-78
2024/02/20 04:17:31;;;;;;;16.40;4.17;;;7.80;1.00;;;;;;4996030;28;20263;-81
2024/02/20 04:19:59;;;;;;;20.10;3.60;;;7.80;1.00;;;;;;4991721;28;20228;-79
2024/02/20 04:22:26;;;;;;;24.17;4.77;;;7.80;1.00;;;;;;4991663;28;20292;-79
2024/02/20 04:24:52;;;;;;;22.90;4.53;;;7.70;1.00;;;;;;4985270;28;20579;-79
2024/02/20 04:27:21;;;;;;;21.83;4.77;;;7.70;1.00;;;;;;4979556;28;20313;-79
2024/02/20 04:29:47;;;;;;;17.50;4.70;;;7.70;1.00;;;;;;4984411;28;20312;-80
2024/02/20 04:32:14;;;;;;;19.73;3.70;;;7.70;1.00;;;;;;4984670;28;20393;-79
2024/02/20 04:34:41;;;;;;;20.57;4.27;;;7.70;99.90;;;;;;4980162;28;20630;-79
2024/02/20 04:37:08;;;;;;;19.00;3.47;;;7.70;99.90;;;;;;4982290;28;20198;-79
2024/02/20 04:39:35;;;;;;;26.13;4.43;;;7.70;1.00;;;;;;4980741;28;20307;-80
2024/02/20 04:42:02;;;;;;;24.13;3.90;;;7.70;1.00;;;;;;4983182;28;20305;-78
2024/02/20 04:44:30;;;;;;;22.03;4.50;;;7.70;1.00;;;;;;4985111;28;20655;-79
2024/02/20 04:46:57;;;;;;;16.77;3.80;;;7.70;99.90;;;;;;4981413;28;20205;-78
2024/02/20 04:49:24;;;;;;;22.47;3.70;;;7.60;1.00;;;;;;4989971;28;20225;-78
2024/02/20 04:51:50;;;;;;;17.13;3.50;;;7.60;99.90;;;;;;4988942;28;20237;-79
2024/02/20 04:54:17;;;;;;;21.63;3.70;;;7.60;1.00;;;;;;4991120;28;20264;-78
2024/02/20 04:56:44;;;;;;;15.57;2.97;;;7.60;32.00;;;;;;4984403;28;20205;-80
2024/02/20 04:59:11;;;;;;;18.27;2.97;;;7.70;1.00;;;;;;4990926;28;20221;-80
2024/02/20 05:01:39;;;;;;;17.00;3.77;;;7.60;1.00;;;;;;4995391;28;20317;-78
2024/02/20 05:04:06;;;;;;;19.20;3.17;;;7.70;1.00;;;;;;4992541;28;20292;-77
2024/02/20 05:06:34;;;;;;;19.70;4.33;;;7.70;1.00;;;;;;4991847;28;20212;-79
2024/02/20 05:09:01;;;;;;;26.93;4.90;;;7.70;1.00;;;;;;4989904;28;20292;-79
2024/02/20 05:11:28;;;;;;;22.03;4.13;;;7.70;1.00;;;;;;4986981;28;20205;-80
2024/02/20 05:13:55;;;;;;;16.87;3.50;;;7.70;1.00;;;;;;4991813;28;20560;-80
2024/02/20 05:16:22;;;;;;;19.97;3.63;;;7.60;99.90;;;;;;4994214;28;20216;-79
2024/02/20 05:18:50;;;;;;;27.47;4.17;;;7.60;1.00;;;;;;4992869;28;20225;-79
2024/02/20 05:21:17;;;;;;;26.30;4.57;;;7.50;1.00;;;;;;4992013;28;20654;-80
2024/02/20 05:23:44;;;;;;;18.73;3.93;;;7.50;62.30;;;;;;4991719;28;20292;-80
2024/02/20 05:26:11;;;;;;;35.60;6.20;;;7.50;99.90;;;;;;4986087;28;20205;-79
2024/02/20 05:28:38;;;;;;;23.27;4.80;;;7.50;99.90;;;;;;4977759;28;20265;-78
2024/02/20 05:31:26;;;;;;;30.97;4.87;;;7.40;1.00;;;;;;4983970;28;20241;-78
2024/02/20 05:33:55;;;;;;;20.27;4.10;;;7.40;1.00;;;;;;4984748;28;20301;-80
2024/02/20 05:36:22;;;;;;;21.67;4.13;;;7.40;1.00;;;;;;4983915;28;20563;-80
2024/02/20 05:38:49;;;;;;;24.73;4.73;;;7.40;1.00;;;;;;4988524;28;20216;-79
2024/02/20 05:41:16;;;;;;;25.27;3.97;;;7.40;1.00;;;;;;4983778;28;20312;-79
2024/02/20 05:43:42;;;;;;;20.20;3.90;;;7.30;1.00;;;;;;4983057;28;20241;-79
2024/02/20 05:46:09;;;;;;;23.83;6.10;;;7.40;1.00;;;;;;4983565;28;20288;-79
2024/02/20 05:48:36;;;;;;;24.93;4.57;;;7.40;1.00;;;;;;4986680;28;20231;-78
2024/02/20 05:51:05;;;;;;;23.10;5.17;;;7.40;1.00;;;;;;4981346;28;20202;-79
2024/02/20 05:53:32;;;;;;;16.47;3.63;;;7.30;1.00;;;;;;4988272;28;20264;-78
2024/02/20 05:55:59;;;;;;;25.77;4.50;;;7.40;1.00;;;;;;4985190;28;20222;-80
2024/02/20 05:58:25;;;;;;;27.57;5.03;;;7.40;1.00;;;;;;4990510;28;20216;-80
2024/02/20 06:00:52;;;;;;;19.87;4.53;;;7.40;1.00;;;;;;4978548;28;20755;-79
2024/02/20 06:03:19;;;;;;;23.77;5.47;;;7.40;1.00;;;;;;4989175;28;20256;-80
2024/02/20 06:05:46;;;;;;;23.23;5.00;;;7.40;99.90;;;;;;4992310;28;20243;-80
2024/02/20 06:08:15;;;;;;;21.57;5.10;;;7.50;99.90;;;;;;4993554;28;20229;-80
2024/02/20 06:10:42;;;;;;;25.70;5.00;;;7.50;55.10;;;;;;4995002;28;20296;-79
2024/02/20 06:13:09;;;;;;;23.70;4.63;;;7.50;99.90;;;;;;4991925;28;20295;-79
2024/02/20 06:15:36;;;;;;;22.93;5.20;;;7.50;1.00;;;;;;4994045;28;20209;-79
2024/02/20 06:18:03;;;;;;;28.47;5.60;;;7.50;1.00;;;;;;4991087;28;20212;-80
2024/02/20 06:20:30;;;;;;;25.60;4.97;;;7.50;1.00;;;;;;4994808;28;20308;-80
2024/02/20 06:22:59;;;;;;;25.00;6.03;;;7.40;1.00;;;;;;4993158;28;20787;-80
2024/02/20 06:25:28;;;;;;;21.33;4.47;;;7.50;45.20;;;;;;4990553;28;20205;-79
2024/02/20 06:27:55;;;;;;;25.57;6.73;;;7.40;1.00;;;;;;4981149;28;20661;-79
2024/02/20 06:30:22;;;;;;;26.87;5.07;;;7.40;1.00;;;;;;4978092;28;20678;-79
2024/02/20 06:32:48;;;;;;;26.60;5.73;;;7.40;1.00;;;;;;4982988;28;20202;-78
2024/02/20 06:35:15;;;;;;;23.63;5.03;;;7.40;1.00;;;;;;4984504;28;20637;-79
2024/02/20 06:37:42;;;;;;;21.10;5.97;;;7.40;1.00;;;;;;4987408;28;20229;-78
2024/02/20 06:40:09;;;;;;;24.60;5.27;;;7.40;1.00;;;;;;4985111;28;20308;-78
2024/02/20 06:42:37;;;;;;;26.43;5.97;;;7.40;99.90;;;;;;4984241;28;20643;-80
2024/02/20 06:45:05;;;;;;;31.23;5.47;;;7.40;1.00;;;;;;4988317;28;20244;-80
2024/02/20 06:47:32;;;;;;;20.67;5.37;;;7.30;1.00;;;;;;4987964;28;20205;-79
2024/02/20 06:49:59;;;;;;;20.77;5.40;;;7.40;1.00;;;;;;4988229;28;20268;-81
2024/02/20 06:52:26;;;;;;;25.37;5.43;;;7.30;1.00;;;;;;4991741;28;20248;-80
2024/02/20 06:54:53;;;;;;;20.97;4.77;;;7.40;99.90;;;;;;4985831;28;20292;-79
2024/02/20 06:57:20;;;;;;;23.77;4.90;;;7.40;99.90;;;;;;4986409;28;20293;-79
2024/02/20 06:59:48;;;;;;;22.63;5.23;;;7.40;99.90;;;;;;4986634;28;20224;-79
2024/02/20 07:02:15;;;;;;;27.03;5.83;;;7.40;1.00;;;;;;4991533;28;20351;-79
2024/02/20 07:04:41;;;;;;;20.23;4.77;;;7.40;1.00;;;;;;4988546;28;20209;-79
2024/02/20 07:07:08;;;;;;;20.57;5.33;;;7.40;99.90;;;;;;4992037;28;20205;-79
2024/02/20 07:09:35;;;;;;;20.97;4.37;;;7.40;1.00;;;;;;4994850;28;20328;-78
2024/02/20 07:12:03;;;;;;;20.10;4.53;;;7.40;1.00;;;;;;4994813;28;20212;-79
2024/02/20 07:14:30;;;;;;;27.00;4.50;;;7.40;1.00;;;;;;4998427;28;20205;-80
2024/02/20 07:16:58;;;;;;;34.50;4.90;;;7.40;99.90;;;;;;4998042;28;20638;-80
2024/02/20 07:19:25;;;;;;;28.67;5.13;;;7.40;1.00;;;;;;4997412;28;20288;-79
2024/02/20 07:21:52;;;;;;;23.73;4.43;;;7.40;99.90;;;;;;4997441;28;20687;-78
2024/02/20 07:24:20;;;;;;;22.83;5.73;;;7.40;99.90;;;;;;4996103;28;20598;-78
2024/02/20 07:26:47;;;;;;;19.53;4.20;;;7.40;99.90;;;;;;4984769;28;20210;-79
2024/02/20 07:29:18;;;;;;;26.97;4.67;;;7.40;99.90;;;;;;4980138;28;20328;-79
2024/02/20 07:31:45;;;;;;;23.03;4.87;;;7.40;99.90;;;;;;4981153;28;20197;-79
2024/02/20 07:34:13;;;;;;;23.30;5.57;;;7.40;85.00;;;;;;4980714;28;20241;-79
2024/02/20 07:36:40;;;;;;;16.93;5.53;;;7.40;99.90;;;;;;4983420;28;20212;-80
2024/02/20 07:39:07;;;;;;;25.00;6.50;;;7.40;99.90;;;;;;4987981;28;20224;-80
2024/02/20 07:41:34;;;;;;;20.37;6.00;;;7.40;69.60;;;;;;4984812;28;20224;-80
2024/02/20 07:44:01;;;;;;;23.67;5.63;;;7.50;1.00;;;;;;4981319;28;20677;-79
2024/02/20 07:46:28;;;;;;;28.67;5.97;;;7.50;1.00;;;;;;4982845;28;20229;-80
2024/02/20 07:48:55;;;;;;;26.10;6.03;;;7.50;1.00;;;;;;4988653;28;20312;-80
2024/02/20 07:51:23;;;;;;;23.37;6.17;;;7.60;1.00;;;;;;4985226;28;20197;-79
2024/02/20 07:53:50;;;;;;;21.57;5.93;;;7.60;1.00;;;;;;4988968;28;20260;-79
2024/02/20 07:56:23;;;;;;;30.10;6.10;;;7.70;72.10;;;;;;4979547;28;20210;-79
2024/02/20 07:58:50;;;;;;;21.50;5.73;;;7.70;25.20;;;;;;4987180;28;20248;-78
2024/02/20 08:01:18;;;;;;;27.97;6.27;;;7.70;73.40;;;;;;4991731;28;20238;-79
2024/02/20 08:03:45;;;;;;;24.10;5.07;;;7.70;99.90;;;;;;4987203;28;20292;-79
2024/02/20 08:06:12;;;;;;;24.77;5.73;;;7.80;99.90;;;;;;4989783;28;20699;-80
2024/02/20 08:08:40;;;;;;;24.93;6.00;;;7.80;43.20;;;;;;4990988;28;20294;-79
2024/02/20 08:11:07;;;;;;;24.87;5.33;;;7.80;65.00;;;;;;4993399;28;20205;-79
2024/02/20 08:13:34;;;;;;;22.73;5.23;;;7.90;99.90;;;;;;4994873;28;20208;-81
2024/02/20 08:16:01;;;;;;;25.97;5.57;;;7.80;78.30;;;;;;4987258;28;20211;-80
2024/02/20 08:18:28;;;;;;;25.00;6.60;;;7.80;1.00;;;;;;4989951;28;20233;-81
2024/02/20 08:20:55;;;;;;;24.17;5.23;;;7.80;99.90;;;;;;4996312;28;20201;-80
2024/02/20 08:23:22;;;;;;;20.80;5.17;;;7.80;1.00;;;;;;4996347;28;20292;-80
2024/02/20 08:25:50;;;;;;;25.83;4.10;;;7.90;1.00;;;;;;4993131;28;20676;-80
2024/02/20 08:28:17;;;;;;;20.53;4.70;;;7.80;1.00;;;;;;4981350;28;20309;-80
2024/02/20 08:30:45;;;;;;;27.60;5.67;;;7.90;1.00;;;;;;4979491;28;20564;-79
2024/02/20 08:33:12;;;;;;;23.60;4.70;;;7.90;1.00;;;;;;4979352;28;20198;-80
2024/02/20 08:35:39;;;;;;;20.20;4.57;;;7.90;1.00;;;;;;4980281;28;20552;-81
2024/02/20 08:38:07;;;;;;;27.10;4.87;;;7.90;1.00;;;;;;4979552;28;20660;-80
2024/02/20 08:40:34;;;;;;;23.53;4.83;;;8.00;1.00;;;;;;4982558;28;20244;-80
2024/02/20 08:43:02;;;;;;;27.70;5.50;;;8.00;1.00;;;;;;4981742;28;20676;-80
2024/02/20 08:45:29;;;;;;;24.13;4.93;;;8.00;1.00;;;;;;4984810;28;20228;-80
2024/02/20 08:47:57;;;;;;;21.60;5.37;;;8.00;1.00;;;;;;4983893;28;20206;-80
2024/02/20 08:50:24;;;;;;;27.63;5.37;;;8.00;1.00;;;;;;4991268;28;20236;-79
2024/02/20 08:52:51;;;;;;;20.47;5.70;;;8.10;1.00;;;;;;4981722;28;20213;-79
2024/02/20 08:55:18;;;;;;;25.47;6.13;;;8.20;1.00;;;;;;4980165;28;20280;-79
2024/02/20 08:57:45;;;;;;;28.63;6.47;;;8.30;1.00;;;;;;4987137;28;20233;-80
2024/02/20 09:00:16;;;;;;;22.50;5.13;;;8.40;1.00;;;;;;4985258;28;20221;-80
2024/02/20 09:02:43;;;;;;;26.93;5.60;;;8.50;1.00;;;;;;4994415;28;20220;-80
2024/02/20 09:05:11;;;;;;;23.00;4.83;;;8.50;1.00;;;;;;4983735;28;20558;-80
2024/02/20 09:07:38;;;;;;;23.07;4.90;;;8.60;99.90;;;;;;4983592;28;20205;-80
2024/02/20 09:10:06;;;;;;;25.20;5.00;;;8.90;99.90;;;;;;4989578;28;20715;-79
2024/02/20 09:12:35;;;;;;;14.97;3.73;;;9.40;1.00;;;;;;4988495;28;20690;-80
2024/02/20 09:15:02;;;;;;;32.97;5.20;;;9.90;1.00;;;;;;4986033;28;20237;-81
2024/02/20 09:17:31;;;;;;;19.90;4.57;;;9.90;1.00;;;;;;4984811;28;20220;-81
2024/02/20 09:19:58;;;;;;;21.57;4.30;;;9.60;1.00;;;;;;4991877;28;20220;-80
2024/02/20 09:22:26;;;;;;;27.10;6.17;;;9.40;1.00;;;;;;4985207;28;20680;-80
2024/02/20 09:24:53;;;;;;;24.13;5.07;;;9.50;99.90;;;;;;4992673;28;20205;-80
2024/02/20 09:27:20;;;;;;;26.33;6.03;;;9.60;1.00;;;;;;4996328;28;20299;-80
2024/02/20 09:29:47;;;;;;;21.57;5.03;;;9.50;99.90;;;;;;4984406;28;20237;-80
2024/02/20 09:32:14;;;;;;;24.63;5.30;;;9.60;99.90;;;;;;4978790;28;20636;-79
2024/02/20 09:34:44;;;;;;;24.50;4.73;;;9.80;99.90;;;;;;4979507;28;20206;-80
2024/02/20 09:37:11;;;;;;;21.40;4.23;;;10.00;99.90;;;;;;4981946;28;20209;-80
2024/02/20 09:39:38;;;;;;;19.27;4.80;;;9.90;3.70;;;;;;4979728;28;20223;-79
2024/02/20 09:42:10;;;;;;;24.60;4.30;;;10.00;1.00;;;;;;4979078;28;20225;-79
2024/02/20 09:44:41;;;;;;;20.63;4.73;;;10.10;1.00;;;;;;4982094;28;20753;-80
2024/02/20 09:47:11;;;;;;;19.47;4.03;;;10.00;1.00;;;;;;4986695;28;20209;-80
2024/02/20 09:49:39;;;;;;;24.30;5.07;;;9.90;1.00;;;;;;4989989;28;20286;-80
2024/02/20 09:52:09;;;;;;;16.93;4.07;;;10.00;1.00;;;;;;4982764;28;20651;-81
2024/02/20 09:54:37;;;;;;;25.63;5.40;;;10.20;1.00;;;;;;4985406;28;20198;-79
2024/02/20 09:57:04;;;;;;;20.33;4.43;;;10.10;1.00;;;;;;4989014;28;20284;-79
2024/02/20 09:59:31;;;;;;;23.57;4.40;;;10.20;1.00;;;;;;4989075;28;20704;-79
2024/02/20 10:01:59;;;;;;;19.70;4.73;;;10.20;1.00;;;;;;4983446;28;20578;-81
2024/02/20 10:04:29;;;;;;;17.23;4.50;;;10.30;1.00;;;;;;4988109;28;20219;-79
2024/02/20 10:06:55;;;;;;;29.27;5.07;;;10.20;1.00;;;;;;4984123;28;20201;-80
2024/02/20 10:09:24;;;;;;;17.87;3.87;;;10.40;1.00;;;;;;4994919;28;20307;-81
2024/02/20 10:11:51;;;;;;;25.17;3.90;;;10.30;1.00;;;;;;4994941;28;20220;-81
2024/02/20 10:14:27;;;;;;;20.33;4.97;;;10.40;1.00;;;;;;4994946;28;20627;-81
2024/02/20 10:17:00;;;;;;;24.07;4.40;;;10.40;99.90;;;;;;4990935;28;20201;-80
2024/02/20 10:19:26;;;;;;;20.17;3.80;;;10.30;99.90;;;;;;4998224;28;20221;-80
2024/02/20 10:21:53;;;;;;;19.93;3.83;;;10.40;1.00;;;;;;4993292;28;20269;-81
2024/02/20 10:24:20;;;;;;;19.77;5.10;;;10.50;99.90;;;;;;4984172;28;20297;-80
2024/02/20 10:26:48;;;;;;;14.27;3.67;;;10.70;99.90;;;;;;4982853;28;20229;-80
2024/02/20 10:29:17;;;;;;;21.60;3.70;;;10.80;99.90;;;;;;4988511;28;20313;-80
2024/02/20 10:31:43;;;;;;;15.27;3.43;;;10.80;99.90;;;;;;4998677;28;20255;-81
2024/02/20 10:34:10;;;;;;;17.83;4.57;;;10.70;99.90;;;;;;4999323;28;20288;-79
2024/02/20 10:36:37;;;;;;;21.90;4.20;;;10.50;99.90;;;;;;4990482;28;20296;-80
2024/02/20 10:39:05;;;;;;;16.07;3.87;;;10.70;99.90;;;;;;4984193;28;20276;-80
2024/02/20 10:41:32;;;;;;;22.57;3.83;;;10.90;99.90;;;;;;4985655;28;20259;-80
2024/02/20 10:44:00;;;;;;;12.60;2.87;;;10.90;99.90;;;;;;4989358;28;20221;-81
2024/02/20 10:46:27;;;;;;;16.40;3.77;;;10.90;7.10;;;;;;4992020;28;20220;-80
2024/02/20 10:48:58;;;;;;;10.47;3.23;;;10.90;1.00;;;;;;4983247;28;20241;-81
2024/02/20 10:51:27;;;;;;;17.87;3.87;;;11.10;35.00;;;;;;4987984;28;20209;-80
2024/02/20 10:53:55;;;;;;;15.93;3.13;;;11.30;1.00;;;;;;4991418;28;20680;-78
2024/02/20 10:56:23;;;;;;;16.00;2.93;;;11.30;1.00;;;;;;4992224;28;20220;-80
2024/02/20 10:58:50;;;;;;;16.03;3.00;;;11.30;1.00;;;;;;4985303;28;20247;-80
2024/02/20 11:01:19;;;;;;;16.10;3.50;;;11.20;1.00;;;;;;4987561;28;20688;-80
2024/02/20 11:03:47;;;;;;;18.83;3.73;;;11.40;1.00;;;;;;4989396;28;20284;-81
2024/02/20 11:06:14;;;;;;;11.87;2.83;;;11.20;1.00;;;;;;4991926;28;20233;-82
2024/02/20 11:08:43;;;;;;;15.03;3.43;;;11.10;1.00;;;;;;4988091;28;20253;-80
2024/02/20 11:11:12;;;;;;;14.97;3.50;;;10.90;1.00;;;;;;4992552;28;20217;-79
2024/02/20 11:13:40;;;;;;;14.30;3.40;;;10.90;1.00;;;;;;4991180;28;20197;-80
2024/02/20 11:16:11;;;;;;;19.77;3.83;;;11.00;1.00;;;;;;4994044;28;20240;-80
2024/02/20 11:18:50;;;;;;;16.87;3.60;;;11.10;1.00;;;;;;4995620;28;20227;-80
2024/02/20 11:21:25;;;;;;;13.23;3.60;;;11.20;1.00;;;;;;4991375;28;20299;-80
2024/02/20 11:23:52;;;;;;;16.90;3.30;;;11.10;1.00;;;;;;4986591;28;20304;-80
2024/02/20 11:26:26;;;;;;;16.60;3.57;;;11.20;1.00;;;;;;4989865;28;20232;-80
2024/02/20 11:28:53;;;;;;;15.73;4.17;;;11.20;1.00;;;;;;4979772;28;20267;-79
2024/02/20 11:31:25;;;;;;;12.37;3.17;;;11.40;1.00;;;;;;4979362;28;20297;-79
2024/02/20 11:33:54;;;;;;;12.93;3.40;;;11.40;1.00;;;;;;4980005;28;20225;-79
2024/02/20 11:36:21;;;;;;;11.77;3.20;;;11.50;1.00;;;;;;4981943;28;20233;-81
2024/02/20 11:38:59;;;;;;;17.93;3.27;;;11.30;1.00;;;;;;4997210;28;20220;-80
2024/02/20 11:41:26;;;;;;;15.53;3.20;;;11.20;1.00;;;;;;4996306;28;20292;-80
2024/02/20 11:44:00;;;;;;;16.83;3.17;;;11.10;1.00;;;;;;4988564;28;20317;-80
2024/02/20 11:46:27;;;;;;;17.50;3.20;;;11.30;1.00;;;;;;4991071;28;20205;-80
2024/02/20 11:48:55;;;;;;;15.80;3.50;;;11.20;1.00;;;;;;4984130;28;20313;-79
2024/02/20 11:51:24;;;;;;;14.73;3.37;;;11.20;1.00;;;;;;4986614;28;20642;-80
2024/02/20 11:54:02;;;;;;;14.67;3.00;;;11.00;1.00;;;;;;4987712;28;20202;-82
2024/02/20 11:56:29;;;;;;;16.97;3.20;;;11.10;1.00;;;;;;4990188;28;20283;-80
2024/02/20 11:58:57;;;;;;;13.63;3.60;;;11.00;1.00;;;;;;4988496;28;20668;-81
2024/02/20 12:01:24;;;;;;;14.00;3.70;;;10.90;1.00;;;;;;4989120;28;20250;-80
2024/02/20 12:03:51;;;;;;;17.30;4.03;;;10.80;1.00;;;;;;4990316;28;20308;-81
2024/02/20 12:06:27;;;;;;;13.07;3.57;;;10.80;1.00;;;;;;4988332;28;20280;-81
2024/02/20 12:08:55;;;;;;;14.17;3.23;;;10.80;1.00;;;;;;4990890;28;20235;-82
2024/02/20 12:11:26;;;;;;;16.33;3.97;;;10.80;1.00;;;;;;4990773;28;20205;-80
2024/02/20 12:13:54;;;;;;;16.83;3.90;;;10.80;1.00;;;;;;4993954;28;20205;-79
2024/02/20 12:16:22;;;;;;;16.40;4.03;;;10.80;1.00;;;;;;4994911;28;20225;-81
2024/02/20 12:18:50;;;;;;;13.40;3.50;;;10.90;1.00;;;;;;4992908;28;20221;-80
2024/02/20 12:21:23;;;;;;;16.27;3.60;;;10.80;1.00;;;;;;4999490;28;20205;-81
2024/02/20 12:23:55;;;;;;;12.77;3.93;;;11.00;1.00;;;;;;4997621;28;20225;-80
2024/02/20 12:26:22;;;;;;;19.07;4.93;;;11.10;1.00;;;;;;4985587;28;20233;-79
2024/02/20 12:28:49;;;;;;;15.70;3.50;;;11.00;1.00;;;;;;4980936;28;20280;-81
2024/02/20 12:31:21;;;;;;;14.13;3.30;;;10.80;1.00;;;;;;4978472;28;20481;-80
2024/02/20 12:33:48;;;;;;;16.63;4.33;;;10.70;1.00;;;;;;4980018;28;20209;-79
2024/02/20 12:36:15;;;;;;;12.83;4.67;;;10.80;1.00;;;;;;4981359;28;20210;-79
2024/02/20 12:38:44;;;;;;;14.27;3.67;;;10.80;1.00;;;;;;4980627;28;20257;-80
2024/02/20 12:41:11;;;;;;;18.37;4.90;;;10.90;1.00;;;;;;4981998;28;20563;-81
2024/02/20 12:43:38;;;;;;;17.27;4.10;;;11.00;1.00;;;;;;4989276;28;20947;-81
2024/02/20 12:46:06;;;;;;;19.97;5.27;;;10.90;1.00;;;;;;4996272;28;20212;-79
2024/02/20 12:48:33;;;;;;;15.77;4.37;;;10.90;1.00;;;;;;4991253;28;20225;-81
2024/02/20 12:51:00;;;;;;;21.37;5.20;;;11.00;1.00;;;;;;4985289;28;20237;-79
2024/02/20 12:53:27;;;;;;;18.13;4.90;;;10.90;1.00;;;;;;4991485;28;20201;-81